Time;durP1;ratioP1;P1;durP2;ratioP2;P2;SDS_P1;SDS_P2;PMS_P1;PMS_P2;Temp;Humidity;BMP_temperature;BMP_pressure;BME280_temperature;BME280_humidity;BME280_pressure;Samples;Min_cycle;Max_cycle;Signal;HPM_P1;HPM_P2
2023/07/12 00:04:41;;;;;;;;;;;;;;;;;;1040403;28;19992;-78
2023/07/12 00:05:11;;;;;;;;;;;;;;;;;;1041818;28;19943;-78
2023/07/12 00:05:41;;;;;;;;;;;;;;;;;;1043521;28;20332;-78
2023/07/12 00:16:52;;;;;;;;;;;;;;;;;;1236019;22;19935;-78
2023/07/12 00:24:43;;;;;;;;;;;;;;;;;;1185456;23;19923;-78
2023/07/12 00:35:53;;;;;;;;;;;;;;;;;;1208626;23;19920;-77
2023/07/12 00:36:24;;;;;;;;;;;;;;;;;;1044086;28;19960;-77
2023/07/12 00:36:54;;;;;;;;;;;;;;;;;;1044282;28;20010;-78
2023/07/12 00:37:24;;;;;;;;;;;;;;;;;;1044556;28;19971;-78
2023/07/12 00:37:54;;;;;;;;;;;;;;;;;;1160067;23;19912;-77
2023/07/12 00:38:26;;;;;;;;;;;;;;;;;;1043009;28;19915;-78
2023/07/12 00:38:56;;;;;;;;;;;;;;;;;;1043557;28;19909;-79
2023/07/12 00:39:26;;;;;;;;;;;;;;;;;;1043377;28;19915;-79
2023/07/12 00:39:56;;;;;;;;;;;;;;;;;;1137972;23;20627;-78
2023/07/12 02:09:08;;;;;;;;;;;;;;;;;;1185180;22;19947;-81
2023/07/12 02:53:00;;;;;;;;;;;;;;;;;;1212138;22;19919;-79
2023/07/12 03:11:56;;;;;;;;;;;;;;;;;;1261245;22;19920;-81
2023/07/12 03:14:26;;;;;;;;;;;;;;;;;;1231592;23;19930;-78
2023/07/12 03:14:56;;;;;;;;;;;;;;;;;;1142195;22;19915;-77
2023/07/12 03:16:07;;;;;;;;;;;;;;;;;;1254723;23;19936;-78
2023/07/12 03:17:17;;;;;;;;;;;;;;;;;;1091712;22;19929;-80
2023/07/12 03:17:47;;;;;;;;;;;;;;;;;;1038524;28;19960;-80
2023/07/12 03:18:17;;;;;;;;;;;;;;;;;;1038070;28;19913;-80
2023/07/12 03:18:48;;;;;;;;;;;;;;;;;;1039285;28;19908;-79
2023/07/12 03:19:18;;;;;;;;;;;;;;;;;;1038566;28;19928;-80
2023/07/12 03:19:49;;;;;;;;;;;;;;;;;;1034967;28;19914;-79
2023/07/12 03:48:51;;;;;;;;;;;;;;;;;;1194697;22;20174;-80
2023/07/12 03:52:02;;;;;;;;;;;;;;;;;;1192032;22;19931;-81
2023/07/12 03:52:34;;;;;;;;;;;;;;;;;;1040721;28;19948;-80
2023/07/12 03:53:04;;;;;;;;;;;;;;;;;;1035835;28;19916;-81
2023/07/12 03:53:35;;;;;;;;;;;;;;;;;;1034154;28;19913;-80
2023/07/12 03:55:25;;;;;;;;;;;;;;;;;;1249602;23;19920;-79
2023/07/12 04:13:13;;;;;;;;;;;;;;;;;;1237173;22;19954;-81
2023/07/12 04:38:18;;;;;;;;;;;;;;;;;;1236454;22;19919;-82
2023/07/12 04:38:49;;;;;;;;;;;;;;;;;;1150803;22;19923;-79
2023/07/12 04:53:13;;;;;;;;;;;;;;;;;;1184542;23;19946;-82
2023/07/12 05:00:24;;;;;;;;;;;;;;;;;;1261341;22;19919;-79
2023/07/12 05:07:36;;;;;;;;;;;;;;;;;;1235039;22;19942;-80
2023/07/12 05:08:06;;;;;;;;;;;;;;;;;;1042047;28;19916;-80
2023/07/12 05:08:36;;;;;;;;;;;;;;;;;;1042649;28;19913;-80
2023/07/12 05:09:06;;;;;;;;;;;;;;;;;;1036707;28;19940;-81
2023/07/12 05:09:37;;;;;;;;;;;;;;;;;;1038390;28;19913;-81
2023/07/12 05:10:07;;;;;;;;;;;;;;;;;;1035925;28;19913;-82
2023/07/12 05:10:37;;;;;;;;;;;;;;;;;;1036816;28;19913;-80
2023/07/12 05:11:08;;;;;;;;;;;;;;;;;;1040719;28;19991;-81
2023/07/12 05:11:38;;;;;;;;;;;;;;;;;;1196497;22;19915;-80
2023/07/12 05:14:08;;;;;;;;;;;;;;;;;;1254344;23;19943;-77
2023/07/12 05:21:59;;;;;;;;;;;;;;;;;;1212273;22;19930;-79
2023/07/12 05:22:29;;;;;;;;;;;;;;;;;;1064031;23;19960;-79
2023/07/12 05:24:56;;;;;;;;;;;;;;;;;;1111502;22;19998;-79
2023/07/12 05:29:24;;;;;;;;;;;;;;;;;;1073916;22;19948;-77
2023/07/12 05:36:28;;;;;;;;;;;;;;;;;;1199674;23;19967;-80
2023/07/12 05:38:46;;;;;;;;;;;;;;;;;;1110682;22;19925;-78
2023/07/12 05:39:16;;;;;;;;;;;;;;;;;;1041070;28;19917;-80
2023/07/12 05:41:07;;;;;;;;;;;;;;;;;;1188743;22;19927;-79
2023/07/12 05:43:39;;;;;;;;;;;;;;;;;;1167517;22;19971;-76
2023/07/12 05:44:09;;;;;;;;;;;;;;;;;;1040635;28;19923;-77
2023/07/12 05:44:40;;;;;;;;;;;;;;;;;;1041317;28;19920;-80
2023/07/12 05:45:10;;;;;;;;;;;;;;;;;;1041272;28;19979;-78
2023/07/12 05:45:40;;;;;;;;;;;;;;;;;;1037344;28;19909;-79
2023/07/12 05:46:11;;;;;;;;;;;;;;;;;;1037851;28;19909;-80
2023/07/12 05:46:41;;;;;;;;;;;;;;;;;;1037678;28;19909;-78
2023/07/12 05:49:45;;;;;;;;;;;;;;;;;;1116931;22;20023;-79
2023/07/12 05:50:16;;;;;;;;;;;;;;;;;;1042374;28;19913;-79
2023/07/12 05:50:46;;;;;;;;;;;;;;;;;;1040098;28;19928;-81
2023/07/12 05:51:16;;;;;;;;;;;;;;;;;;1037545;28;20071;-80
2023/07/12 05:51:47;;;;;;;;;;;;;;;;;;1035462;28;19910;-80
2023/07/12 05:54:12;;;;;;;;;;;;;;;;;;1164264;22;19943;-78
2023/07/12 05:55:22;;;;;;;;;;;;;;;;;;1036921;28;19925;-77
2023/07/12 05:55:53;;;;;;;;;;;;;;;;;;1035586;28;20305;-80
2023/07/12 05:56:23;;;;;;;;;;;;;;;;;;1037698;28;19916;-80
2023/07/12 05:59:21;;;;;;;;;;;;;;;;;;1185125;23;19943;-78
2023/07/12 05:59:51;;;;;;;;;;;;;;;;;;1268234;23;21113;-77
2023/07/12 06:03:29;;;;;;;;;;;;;;;;;;1117890;22;19929;-78
2023/07/12 06:04:00;;;;;;;;;;;;;;;;;;1042002;28;19944;-78
2023/07/12 06:04:30;;;;;;;;;;;;;;;;;;1042565;28;19958;-77
2023/07/12 06:05:00;;;;;;;;;;;;;;;;;;1041487;28;19909;-80
2023/07/12 06:05:31;;;;;;;;;;;;;;;;;;1042845;28;19991;-84
2023/07/12 06:06:01;;;;;;;;;;;;;;;;;;1040471;28;19913;-78
2023/07/12 06:06:31;;;;;;;;;;;;;;;;;;1042035;28;19908;-78
2023/07/12 06:13:32;;;;;;;;;;;;;;;;;;1184286;22;20260;-78
2023/07/12 06:19:22;;;;;;;;;;;;;;;;;;1189089;22;19920;-79
2023/07/12 06:20:23;;;;;;;;;;;;;;;;;;1195382;22;19907;-80
2023/07/12 06:20:53;;;;;;;;;;;;;;;;;;1042352;28;19916;-80
2023/07/12 06:21:23;;;;;;;;;;;;;;;;;;1041863;28;19940;-81
2023/07/12 06:21:53;;;;;;;;;;;;;;;;;;1041164;28;19955;-82
2023/07/12 06:22:24;;;;;;;;;;;;;;;;;;1037975;28;20262;-81
2023/07/12 06:23:31;;;;;;;;;;;;;;;;;;1058318;23;20406;-81
2023/07/12 06:30:41;;;;;;;;;;;;;;;;;;1096399;22;19968;-79
2023/07/12 06:31:12;;;;;;;;;;;;;;;;;;1076250;23;19925;-80
2023/07/12 06:31:42;;;;;;;;;;;;;;;;;;1157872;23;19916;-79
2023/07/12 06:32:12;;;;;;;;;;;;;;;;;;1067258;23;19924;-81
2023/07/12 06:32:42;;;;;;;;;;;;;;;;;;1041373;28;19916;-80
2023/07/12 06:33:13;;;;;;;;;;;;;;;;;;1042389;28;19952;-81
2023/07/12 06:33:43;;;;;;;;;;;;;;;;;;1042981;28;20422;-84
2023/07/12 06:34:13;;;;;;;;;;;;;;;;;;1038246;28;19974;-80
2023/07/12 06:34:43;;;;;;;;;;;;;;;;;;1038113;28;19909;-79
2023/07/12 06:35:14;;;;;;;;;;;;;;;;;;1038409;28;20377;-80
2023/07/12 06:35:44;;;;;;;;;;;;;;;;;;1037916;28;19909;-82
2023/07/12 06:36:14;;;;;;;;;;;;;;;;;;1036470;28;20001;-83
2023/07/12 06:36:44;;;;;;;;;;;;;;;;;;1035147;28;19909;-82
2023/07/12 06:39:16;;;;;;;;;;;;;;;;;;1119707;22;20027;-79
2023/07/12 06:39:46;;;;;;;;;;;;;;;;;;1121948;23;19916;-79
2023/07/12 06:40:16;;;;;;;;;;;;;;;;;;1044556;28;19916;-80
2023/07/12 06:40:46;;;;;;;;;;;;;;;;;;1040149;28;19935;-79
2023/07/12 06:41:17;;;;;;;;;;;;;;;;;;1039760;28;19956;-79
2023/07/12 06:41:47;;;;;;;;;;;;;;;;;;1040012;28;19909;-79
2023/07/12 06:52:17;;;;;;;;;;;;;;;;;;1166110;23;19928;-80
2023/07/12 06:53:28;;;;;;;;;;;;;;;;;;1112070;23;19929;-79
2023/07/12 06:53:58;;;;;;;;;;;;;;;;;;1109182;23;20041;-79
2023/07/12 06:59:48;;;;;;;;;;;;;;;;;;1211533;22;19967;-79
2023/07/12 07:01:39;;;;;;;;;;;;;;;;;;1167730;23;20001;-78
2023/07/12 07:13:44;;;;;;;;;;;;;;;;;;2469646;22;2225302;-76
2023/07/12 07:14:14;;;;;;;;;;;;;;;;;;1272989;22;19912;-78
2023/07/12 07:14:45;;;;;;;;;;;;;;;;;;1272812;22;19905;-79
2023/07/12 07:15:15;;;;;;;;;;;;;;;;;;1273078;22;19987;-77
2023/07/12 07:15:45;;;;;;;;;;;;;;;;;;1264291;23;19916;-78
2023/07/12 07:16:16;;;;;;;;;;;;;;;;;;1254387;23;19917;-77
2023/07/12 07:16:46;;;;;;;;;;;;;;;;;;1254327;23;19906;-78
2023/07/12 07:17:16;;;;;;;;;;;;;;;;;;1254647;23;20371;-80
2023/07/12 07:17:46;;;;;;;;;;;;;;;;;;1248071;23;19913;-80
2023/07/12 07:18:17;;;;;;;;;;;;;;;;;;1248303;23;20033;-78
2023/07/12 07:18:49;;;;;;;;;;;;;;;;;;1247941;23;20425;-78
2023/07/12 07:19:19;;;;;;;;;;;;;;;;;;1248571;23;19956;-78
2023/07/12 07:19:49;;;;;;;;;;;;;;;;;;1254493;23;20008;-78
2023/07/12 07:20:19;;;;;;;;;;;;;;;;;;1248451;23;19906;-78
2023/07/12 07:20:50;;;;;;;;;;;;;;;;;;1248189;23;20370;-78
2023/07/12 07:21:20;;;;;;;;;;;;;;;;;;1242932;23;19907;-78
2023/07/12 07:21:50;;;;;;;;;;;;;;;;;;1241959;23;19966;-80
2023/07/12 07:25:01;;;;;;;;;;;;;;;;;;1285170;22;20866;-79
2023/07/12 07:25:31;;;;;;;;;;;;;;;;;;1286420;23;19986;-81
2023/07/12 07:26:01;;;;;;;;;;;;;;;;;;1285940;23;19904;-79
2023/07/12 07:26:31;;;;;;;;;;;;;;;;;;1286454;23;19990;-78
2023/07/12 07:27:02;;;;;;;;;;;;;;;;;;1286203;23;19904;-79
2023/07/12 07:27:32;;;;;;;;;;;;;;;;;;1286570;23;20376;-79
2023/07/12 07:28:02;;;;;;;;;;;;;;;;;;1285648;23;19904;-79
2023/07/12 07:28:32;;;;;;;;;;;;;;;;;;1285674;23;19912;-80
2023/07/12 07:29:03;;;;;;;;;;;;;;;;;;1285462;23;19935;-80
2023/07/12 07:29:34;;;;;;;;;;;;;;;;;;1285877;23;20002;-78
2023/07/12 07:30:05;;;;;;;;;;;;;;;;;;1285295;23;19904;-79
2023/07/12 07:30:35;;;;;;;;;;;;;;;;;;1279365;23;20333;-81
2023/07/12 07:31:06;;;;;;;;;;;;;;;;;;1279210;23;20236;-78
2023/07/12 07:31:36;;;;;;;;;;;;;;;;;;1279790;23;20438;-81
2023/07/12 07:34:47;;;;;;;;;;;;;;;;;;1277704;22;19919;-80
2023/07/12 07:35:47;;;;;;;;;;;;;;;;;;1280819;22;19952;-79
2023/07/12 07:36:17;;;;;;;;;;;;;;;;;;1311149;22;20001;-80
2023/07/12 07:36:47;;;;;;;;;;;;;;;;;;1310511;22;20315;-80
2023/07/12 07:37:18;;;;;;;;;;;;;;;;;;1298973;22;19914;-79
2023/07/12 07:39:48;;;;;;;;;;;;;;;;;;1274187;22;20612;-80
2023/07/12 07:41:29;;;;;;;;;;;;;;;;;;1260275;22;19917;-77
2023/07/12 07:41:59;;;;;;;;;;;;;;;;;;1259997;23;20322;-77
2023/07/12 07:42:29;;;;;;;;;;;;;;;;;;1260832;23;19916;-78
2023/07/12 07:42:59;;;;;;;;;;;;;;;;;;1260354;23;19916;-80
2023/07/12 07:43:30;;;;;;;;;;;;;;;;;;1261617;22;19947;-79
2023/07/12 07:44:00;;;;;;;;;;;;;;;;;;1266170;23;19995;-77
2023/07/12 07:44:30;;;;;;;;;;;;;;;;;;1266902;23;19944;-81
2023/07/12 07:45:00;;;;;;;;;;;;;;;;;;1266784;23;19947;-80
2023/07/12 07:45:31;;;;;;;;;;;;;;;;;;1260636;23;19916;-79
2023/07/12 07:46:01;;;;;;;;;;;;;;;;;;1260007;23;19909;-81
2023/07/12 07:46:31;;;;;;;;;;;;;;;;;;1260536;23;19944;-80
2023/07/12 07:47:02;;;;;;;;;;;;;;;;;;1262017;23;19906;-77
2023/07/12 07:47:33;;;;;;;;;;;;;;;;;;1266724;23;19941;-79
2023/07/12 07:48:03;;;;;;;;;;;;;;;;;;1266011;23;19945;-79
2023/07/12 07:48:33;;;;;;;;;;;;;;;;;;1266822;23;19913;-79
2023/07/12 07:49:04;;;;;;;;;;;;;;;;;;1265883;23;19904;-78
2023/07/12 07:49:34;;;;;;;;;;;;;;;;;;1266490;23;19959;-79
2023/07/12 07:50:04;;;;;;;;;;;;;;;;;;1266411;23;19994;-80
2023/07/12 07:50:34;;;;;;;;;;;;;;;;;;1265761;23;20007;-82
2023/07/12 07:51:05;;;;;;;;;;;;;;;;;;1265976;23;20778;-77
2023/07/12 07:51:35;;;;;;;;;;;;;;;;;;1265948;23;19913;-78
2023/07/12 07:53:25;;;;;;;;;;;;;;;;;;1255322;22;19918;-77
2023/07/12 07:53:56;;;;;;;;;;;;;;;;;;1278371;22;20428;-84
2023/07/12 07:54:26;;;;;;;;;;;;;;;;;;1292958;23;19911;-84
2023/07/12 07:54:56;;;;;;;;;;;;;;;;;;1286238;23;19904;-84
2023/07/12 07:55:26;;;;;;;;;;;;;;;;;;1285998;23;19914;-85
2023/07/12 07:55:56;;;;;;;;;;;;;;;;;;1286284;23;19927;-84
2023/07/12 07:56:27;;;;;;;;;;;;;;;;;;1288137;23;19904;-84
2023/07/12 07:56:57;;;;;;;;;;;;;;;;;;1292577;23;20316;-84
2023/07/12 07:57:28;;;;;;;;;;;;;;;;;;1292262;23;20047;-85
2023/07/12 07:57:59;;;;;;;;;;;;;;;;;;1292442;23;19903;-85
2023/07/12 07:58:29;;;;;;;;;;;;;;;;;;1286313;23;19912;-86
2023/07/12 07:58:59;;;;;;;;;;;;;;;;;;1286551;23;20295;-86
2023/07/12 07:59:30;;;;;;;;;;;;;;;;;;1292151;23;19907;-88
2023/07/12 08:00:04;;;;;;;;;;;;;;;;;;1292587;23;19982;-86
2023/07/12 08:00:35;;;;;;;;;;;;;;;;;;1292570;23;20340;-88
2023/07/12 08:01:05;;;;;;;;;;;;;;;;;;1291524;23;19904;-86
2023/07/12 08:01:35;;;;;;;;;;;;;;;;;;1286977;23;19907;-86
2023/07/12 08:02:06;;;;;;;;;;;;;;;;;;1292560;23;19903;-87
2023/07/12 08:02:36;;;;;;;;;;;;;;;;;;1292483;23;19953;-86
2023/07/12 08:03:06;;;;;;;;;;;;;;;;;;1293974;23;19912;-89
2023/07/12 08:03:36;;;;;;;;;;;;;;;;;;1292685;23;19914;-87
2023/07/12 08:04:07;;;;;;;;;;;;;;;;;;1292754;23;19974;-87
2023/07/12 08:04:37;;;;;;;;;;;;;;;;;;1286336;23;19935;-85
2023/07/12 08:05:07;;;;;;;;;;;;;;;;;;1292453;23;19942;-85
2023/07/12 08:05:37;;;;;;;;;;;;;;;;;;1292327;23;19907;-86
2023/07/12 08:06:08;;;;;;;;;;;;;;;;;;1288216;23;20021;-87
2023/07/12 08:06:39;;;;;;;;;;;;;;;;;;1293010;22;19911;-87
2023/07/12 08:07:10;;;;;;;;;;;;;;;;;;1292479;23;19970;-87
2023/07/12 08:07:42;;;;;;;;;;;;;;;;;;1292924;23;19910;-87
2023/07/12 08:08:12;;;;;;;;;;;;;;;;;;1291843;23;19904;-88
2023/07/12 08:08:42;;;;;;;;;;;;;;;;;;1292018;23;19904;-86
2023/07/12 08:09:13;;;;;;;;;;;;;;;;;;1292433;23;19986;-86
2023/07/12 08:09:43;;;;;;;;;;;;;;;;;;1292374;23;20147;-85
2023/07/12 08:10:13;;;;;;;;;;;;;;;;;;1292414;23;19950;-85
2023/07/12 08:10:43;;;;;;;;;;;;;;;;;;1292643;23;19903;-86
2023/07/12 08:11:14;;;;;;;;;;;;;;;;;;1285971;23;20336;-86
2023/07/12 08:11:44;;;;;;;;;;;;;;;;;;1285802;23;19908;-85
2023/07/12 08:12:14;;;;;;;;;;;;;;;;;;1286483;23;19951;-85
2023/07/12 08:12:45;;;;;;;;;;;;;;;;;;1280023;23;19904;-86
2023/07/12 08:13:15;;;;;;;;;;;;;;;;;;1285992;23;19932;-85
2023/07/12 08:13:45;;;;;;;;;;;;;;;;;;1279915;23;19904;-85
2023/07/12 08:14:18;;;;;;;;;;;;;;;;;;1284619;23;19911;-86
2023/07/12 08:14:49;;;;;;;;;;;;;;;;;;1290839;23;19904;-85
2023/07/12 08:15:20;;;;;;;;;;;;;;;;;;1284860;23;19912;-85
2023/07/12 08:15:50;;;;;;;;;;;;;;;;;;1291138;23;19919;-86
2023/07/12 08:16:20;;;;;;;;;;;;;;;;;;1293530;22;19903;-86
2023/07/12 08:16:51;;;;;;;;;;;;;;;;;;1293255;23;19931;-87
2023/07/12 08:17:21;;;;;;;;;;;;;;;;;;1290996;23;19986;-87
2023/07/12 08:17:51;;;;;;;;;;;;;;;;;;1291175;23;20005;-86
2023/07/12 08:18:22;;;;;;;;;;;;;;;;;;1291117;23;19985;-85
2023/07/12 08:18:53;;;;;;;;;;;;;;;;;;1291170;23;19946;-86
2023/07/12 08:19:23;;;;;;;;;;;;;;;;;;1290951;23;19911;-85
2023/07/12 08:19:54;;;;;;;;;;;;;;;;;;1285141;23;19904;-86
2023/07/12 08:20:25;;;;;;;;;;;;;;;;;;1291000;23;19911;-84
2023/07/12 08:20:55;;;;;;;;;;;;;;;;;;1291195;23;19925;-85
2023/07/12 08:21:26;;;;;;;;;;;;;;;;;;1290660;22;19910;-85
2023/07/12 08:21:56;;;;;;;;;;;;;;;;;;1290981;23;19904;-84
2023/07/12 08:22:27;;;;;;;;;;;;;;;;;;1290875;23;19987;-85
2023/07/12 08:22:58;;;;;;;;;;;;;;;;;;1291357;23;20364;-85
2023/07/12 08:23:29;;;;;;;;;;;;;;;;;;1291139;23;19915;-84
2023/07/12 08:23:59;;;;;;;;;;;;;;;;;;1290855;23;19919;-85
2023/07/12 08:24:29;;;;;;;;;;;;;;;;;;1290609;23;19915;-85
2023/07/12 08:25:00;;;;;;;;;;;;;;;;;;1290936;23;19907;-86
2023/07/12 08:25:30;;;;;;;;;;;;;;;;;;1284763;23;19907;-85
2023/07/12 08:26:00;;;;;;;;;;;;;;;;;;1284782;23;19908;-87
2023/07/12 08:26:31;;;;;;;;;;;;;;;;;;1278868;23;19908;-88
2023/07/12 08:27:01;;;;;;;;;;;;;;;;;;1279128;23;20241;-89
2023/07/12 08:27:32;;;;;;;;;;;;;;;;;;1284699;23;19910;-87
2023/07/12 08:28:03;;;;;;;;;;;;;;;;;;1284993;23;19904;-87
2023/07/12 08:28:33;;;;;;;;;;;;;;;;;;1291122;23;19950;-86
2023/07/12 08:29:03;;;;;;;;;;;;;;;;;;1291103;23;19903;-87
2023/07/12 08:29:33;;;;;;;;;;;;;;;;;;1290636;23;19907;-87
2023/07/12 08:30:04;;;;;;;;;;;;;;;;;;1291263;23;20048;-85
2023/07/12 08:30:34;;;;;;;;;;;;;;;;;;1290778;23;20183;-85
2023/07/12 08:31:05;;;;;;;;;;;;;;;;;;1290927;23;19910;-87
2023/07/12 08:31:35;;;;;;;;;;;;;;;;;;1284942;23;20408;-86
2023/07/12 08:32:05;;;;;;;;;;;;;;;;;;1291473;23;19904;-84
2023/07/12 08:32:35;;;;;;;;;;;;;;;;;;1290775;23;20244;-85
2023/07/12 08:33:06;;;;;;;;;;;;;;;;;;1291694;23;19931;-84
2023/07/12 08:33:36;;;;;;;;;;;;;;;;;;1284446;23;19991;-85
2023/07/12 08:34:06;;;;;;;;;;;;;;;;;;1284902;23;19986;-83
2023/07/12 08:34:36;;;;;;;;;;;;;;;;;;1291280;23;20002;-85
2023/07/12 08:35:07;;;;;;;;;;;;;;;;;;1291070;23;20021;-84
2023/07/12 08:35:37;;;;;;;;;;;;;;;;;;1291015;22;19907;-84
2023/07/12 08:36:07;;;;;;;;;;;;;;;;;;1291092;23;19904;-85
2023/07/12 08:36:37;;;;;;;;;;;;;;;;;;1290835;22;19908;-84
2023/07/12 08:37:08;;;;;;;;;;;;;;;;;;1290814;23;19986;-85
2023/07/12 08:37:38;;;;;;;;;;;;;;;;;;1290786;23;19977;-84
2023/07/12 08:38:08;;;;;;;;;;;;;;;;;;1290922;23;19950;-84
2023/07/12 08:38:39;;;;;;;;;;;;;;;;;;1290967;23;20006;-84
2023/07/12 08:39:09;;;;;;;;;;;;;;;;;;1284651;23;19998;-84
2023/07/12 08:39:39;;;;;;;;;;;;;;;;;;1284433;23;19903;-85
2023/07/12 08:40:10;;;;;;;;;;;;;;;;;;1284677;23;19915;-85
2023/07/12 08:40:40;;;;;;;;;;;;;;;;;;1278595;23;19912;-85
2023/07/12 08:41:10;;;;;;;;;;;;;;;;;;1284509;23;19954;-84
2023/07/12 08:41:40;;;;;;;;;;;;;;;;;;1284472;23;19908;-86
2023/07/12 08:42:11;;;;;;;;;;;;;;;;;;1278833;23;19905;-86
2023/07/12 08:42:41;;;;;;;;;;;;;;;;;;1278343;23;20373;-86
2023/07/12 08:43:11;;;;;;;;;;;;;;;;;;1278262;23;20352;-85
2023/07/12 08:43:42;;;;;;;;;;;;;;;;;;1284765;23;19911;-84
2023/07/12 08:44:13;;;;;;;;;;;;;;;;;;1284608;23;20422;-84
2023/07/12 08:44:43;;;;;;;;;;;;;;;;;;1290895;23;20245;-84
2023/07/12 08:45:14;;;;;;;;;;;;;;;;;;1291025;23;20005;-84
2023/07/12 08:45:44;;;;;;;;;;;;;;;;;;1290482;23;19910;-85
2023/07/12 08:46:15;;;;;;;;;;;;;;;;;;1291015;23;19950;-84
2023/07/12 08:46:45;;;;;;;;;;;;;;;;;;1290792;22;19908;-85
2023/07/12 08:47:15;;;;;;;;;;;;;;;;;;1284800;23;19904;-85
2023/07/12 08:47:45;;;;;;;;;;;;;;;;;;1290850;23;19903;-84
2023/07/12 08:48:16;;;;;;;;;;;;;;;;;;1291243;23;19982;-84
2023/07/12 08:48:46;;;;;;;;;;;;;;;;;;1290843;23;19904;-84
2023/07/12 08:49:17;;;;;;;;;;;;;;;;;;1290723;23;19984;-84
2023/07/12 08:49:48;;;;;;;;;;;;;;;;;;1290975;23;19903;-85
2023/07/12 08:50:18;;;;;;;;;;;;;;;;;;1290819;23;20042;-84
2023/07/12 08:50:48;;;;;;;;;;;;;;;;;;1284648;23;19904;-84
2023/07/12 08:51:18;;;;;;;;;;;;;;;;;;1290755;22;19991;-85
2023/07/12 08:51:49;;;;;;;;;;;;;;;;;;1290761;23;19911;-85
2023/07/12 08:52:19;;;;;;;;;;;;;;;;;;1290853;23;19911;-84
2023/07/12 08:52:49;;;;;;;;;;;;;;;;;;1291155;23;20478;-86
2023/07/12 08:53:20;;;;;;;;;;;;;;;;;;1284426;23;19904;-85
2023/07/12 08:53:50;;;;;;;;;;;;;;;;;;1275503;23;20003;-89
2023/07/12 08:54:22;;;;;;;;;;;;;;;;;;1253333;23;20338;-85
2023/07/12 08:54:53;;;;;;;;;;;;;;;;;;1259259;23;19991;-88
2023/07/12 08:55:24;;;;;;;;;;;;;;;;;;1259096;23;19906;-86
2023/07/12 08:55:54;;;;;;;;;;;;;;;;;;1259590;23;19936;-85
2023/07/12 08:56:24;;;;;;;;;;;;;;;;;;1264928;23;19905;-85
2023/07/12 08:56:55;;;;;;;;;;;;;;;;;;1253378;23;20102;-87
2023/07/12 08:57:25;;;;;;;;;;;;;;;;;;1259114;23;19905;-88
2023/07/12 08:57:56;;;;;;;;;;;;;;;;;;1259373;23;19912;-89
2023/07/12 08:58:26;;;;;;;;;;;;;;;;;;1259600;23;19933;-90
2023/07/12 08:58:56;;;;;;;;;;;;;;;;;;1265385;23;19905;-86
2023/07/12 08:59:27;;;;;;;;;;;;;;;;;;1264948;23;20334;-88
2023/07/12 08:59:57;;;;;;;;;;;;;;;;;;1265348;23;19905;-86
2023/07/12 09:00:27;;;;;;;;;;;;;;;;;;1265163;23;19905;-85
2023/07/12 09:00:57;;;;;;;;;;;;;;;;;;1265192;23;19905;-85
2023/07/12 09:01:28;;;;;;;;;;;;;;;;;;1265058;23;20353;-85
2023/07/12 09:02:00;;;;;;;;;;;;;;;;;;1265221;23;19991;-85
2023/07/12 09:02:31;;;;;;;;;;;;;;;;;;1259496;23;20319;-84
2023/07/12 09:03:01;;;;;;;;;;;;;;;;;;1259392;23;19988;-84
2023/07/12 09:03:31;;;;;;;;;;;;;;;;;;1259588;23;19910;-84
2023/07/12 09:04:02;;;;;;;;;;;;;;;;;;1265226;23;19909;-85
2023/07/12 09:04:32;;;;;;;;;;;;;;;;;;1265500;23;19916;-85
2023/07/12 09:05:03;;;;;;;;;;;;;;;;;;1265893;23;19912;-86
2023/07/12 09:05:33;;;;;;;;;;;;;;;;;;1264904;23;19909;-84
2023/07/12 09:06:03;;;;;;;;;;;;;;;;;;1265553;23;19987;-85
2023/07/12 09:06:33;;;;;;;;;;;;;;;;;;1265055;23;19988;-85
2023/07/12 09:07:07;;;;;;;;;;;;;;;;;;1265114;23;19905;-85
2023/07/12 09:07:38;;;;;;;;;;;;;;;;;;1264991;23;19966;-86
2023/07/12 09:08:10;;;;;;;;;;;;;;;;;;1264626;23;19954;-87
2023/07/12 09:08:41;;;;;;;;;;;;;;;;;;1264137;23;19905;-88
2023/07/12 09:09:11;;;;;;;;;;;;;;;;;;1259183;23;20000;-86
2023/07/12 09:09:41;;;;;;;;;;;;;;;;;;1253625;23;19913;-87
2023/07/12 09:10:13;;;;;;;;;;;;;;;;;;1259194;23;19939;-86
2023/07/12 09:10:43;;;;;;;;;;;;;;;;;;1259387;23;19955;-85
2023/07/12 09:11:14;;;;;;;;;;;;;;;;;;1259814;23;19932;-87
2023/07/12 09:11:44;;;;;;;;;;;;;;;;;;1265016;23;19916;-86
2023/07/12 09:12:15;;;;;;;;;;;;;;;;;;1265348;23;19905;-86
2023/07/12 09:12:45;;;;;;;;;;;;;;;;;;1265153;23;20004;-86
2023/07/12 09:13:15;;;;;;;;;;;;;;;;;;1259032;23;19917;-88
2023/07/12 09:13:48;;;;;;;;;;;;;;;;;;1265443;23;19911;-84
2023/07/12 09:14:18;;;;;;;;;;;;;;;;;;1259649;23;19905;-85
2023/07/12 09:14:49;;;;;;;;;;;;;;;;;;1265288;23;20383;-85
2023/07/12 09:15:19;;;;;;;;;;;;;;;;;;1265113;23;19913;-85
2023/07/12 09:15:49;;;;;;;;;;;;;;;;;;1265247;23;19936;-85
2023/07/12 09:16:19;;;;;;;;;;;;;;;;;;1265282;23;20353;-84
2023/07/12 09:16:50;;;;;;;;;;;;;;;;;;1259280;23;19905;-84
2023/07/12 09:17:21;;;;;;;;;;;;;;;;;;1264879;23;19905;-85
2023/07/12 09:17:51;;;;;;;;;;;;;;;;;;1265368;23;19971;-85
2023/07/12 09:18:21;;;;;;;;;;;;;;;;;;1265577;23;20100;-86
2023/07/12 09:18:52;;;;;;;;;;;;;;;;;;1266126;23;19912;-88
2023/07/12 09:19:23;;;;;;;;;;;;;;;;;;1270434;23;19893;-89
2023/07/12 09:19:54;;;;;;;;;;;;;;;;;;1267854;23;20218;-89
2023/07/12 09:20:24;;;;;;;;;;;;;;;;;;1263775;23;19916;-88
2023/07/12 09:20:54;;;;;;;;;;;;;;;;;;1258081;23;19929;-87
2023/07/12 09:21:24;;;;;;;;;;;;;;;;;;1265157;22;19957;-87
2023/07/12 09:21:55;;;;;;;;;;;;;;;;;;1261034;23;19913;-87
2023/07/12 09:22:25;;;;;;;;;;;;;;;;;;1259147;23;19906;-86
2023/07/12 09:22:55;;;;;;;;;;;;;;;;;;1265240;23;19904;-86
2023/07/12 09:23:26;;;;;;;;;;;;;;;;;;1265013;23;19955;-87
2023/07/12 09:23:56;;;;;;;;;;;;;;;;;;1259199;23;19906;-86
2023/07/12 09:24:26;;;;;;;;;;;;;;;;;;1259249;23;19991;-87
2023/07/12 09:24:56;;;;;;;;;;;;;;;;;;1265149;23;19905;-86
2023/07/12 09:25:27;;;;;;;;;;;;;;;;;;1267177;23;19905;-84
2023/07/12 09:25:57;;;;;;;;;;;;;;;;;;1267715;23;19987;-87
2023/07/12 09:26:27;;;;;;;;;;;;;;;;;;1265486;23;19905;-87
2023/07/12 09:26:58;;;;;;;;;;;;;;;;;;1265440;23;20038;-88
2023/07/12 09:27:28;;;;;;;;;;;;;;;;;;1265105;23;19913;-88
2023/07/12 09:27:58;;;;;;;;;;;;;;;;;;1265118;23;20166;-88
2023/07/12 09:28:29;;;;;;;;;;;;;;;;;;1265208;23;19923;-84
2023/07/12 09:28:59;;;;;;;;;;;;;;;;;;1259375;23;19917;-85
2023/07/12 09:29:29;;;;;;;;;;;;;;;;;;1258956;23;20357;-87
2023/07/12 09:30:00;;;;;;;;;;;;;;;;;;1259355;23;19905;-86
2023/07/12 09:30:30;;;;;;;;;;;;;;;;;;1253142;23;19917;-86
2023/07/12 09:31:00;;;;;;;;;;;;;;;;;;1259046;23;20296;-85
2023/07/12 09:31:31;;;;;;;;;;;;;;;;;;1259111;23;19968;-87
2023/07/12 09:32:01;;;;;;;;;;;;;;;;;;1253308;23;19956;-87
2023/07/12 09:32:31;;;;;;;;;;;;;;;;;;1259108;23;20223;-87
2023/07/12 09:33:03;;;;;;;;;;;;;;;;;;1259324;23;19906;-87
2023/07/12 09:33:33;;;;;;;;;;;;;;;;;;1264921;23;20281;-87
2023/07/12 09:34:04;;;;;;;;;;;;;;;;;;1265420;23;19905;-89
2023/07/12 09:34:34;;;;;;;;;;;;;;;;;;1265536;23;19915;-90
2023/07/12 09:35:05;;;;;;;;;;;;;;;;;;1265498;23;19905;-89
2023/07/12 09:35:38;;;;;;;;;;;;;;;;;;1265195;23;19909;-91
2023/07/12 09:36:09;;;;;;;;;;;;;;;;;;1259835;23;19910;-90
2023/07/12 09:36:39;;;;;;;;;;;;;;;;;;1265310;23;19992;-88
2023/07/12 09:37:09;;;;;;;;;;;;;;;;;;1265349;23;20357;-89
2023/07/12 09:37:40;;;;;;;;;;;;;;;;;;1265450;23;19911;-89
2023/07/12 09:38:11;;;;;;;;;;;;;;;;;;1265777;23;19904;-89
2023/07/12 09:38:42;;;;;;;;;;;;;;;;;;1232760;22;20004;-88
2023/07/12 09:39:12;;;;;;;;;;;;;;;;;;1259014;23;19996;-89
2023/07/12 09:39:42;;;;;;;;;;;;;;;;;;1259500;23;19929;-88
2023/07/12 09:40:13;;;;;;;;;;;;;;;;;;1253576;23;20023;-86
2023/07/12 09:40:43;;;;;;;;;;;;;;;;;;1253421;23;19992;-85
2023/07/12 09:41:13;;;;;;;;;;;;;;;;;;1259387;23;19967;-85
2023/07/12 09:41:43;;;;;;;;;;;;;;;;;;1265373;23;19908;-86
2023/07/12 09:42:13;;;;;;;;;;;;;;;;;;1259472;23;19906;-86
2023/07/12 09:42:44;;;;;;;;;;;;;;;;;;1259252;23;19913;-87
2023/07/12 09:43:14;;;;;;;;;;;;;;;;;;1259250;23;19905;-87
2023/07/12 09:43:44;;;;;;;;;;;;;;;;;;1253333;23;20429;-87
2023/07/12 09:44:15;;;;;;;;;;;;;;;;;;1253577;23;19906;-86
2023/07/12 09:44:45;;;;;;;;;;;;;;;;;;1259451;23;19905;-85
2023/07/12 09:45:15;;;;;;;;;;;;;;;;;;1253781;23;19905;-91
2023/07/12 09:45:46;;;;;;;;;;;;;;;;;;1253413;23;19985;-90
2023/07/12 09:46:16;;;;;;;;;;;;;;;;;;1260546;23;19956;-92
2023/07/12 09:46:47;;;;;;;;;;;;;;;;;;1259599;23;19924;-89
2023/07/12 09:47:17;;;;;;;;;;;;;;;;;;1265343;23;19945;-90
2023/07/12 09:47:47;;;;;;;;;;;;;;;;;;1265553;23;20068;-91
2023/07/12 09:48:18;;;;;;;;;;;;;;;;;;1265510;23;19905;-88
2023/07/12 09:48:51;;;;;;;;;;;;;;;;;;1259533;23;19906;-89
2023/07/12 09:49:21;;;;;;;;;;;;;;;;;;1259436;23;19912;-89
2023/07/12 09:49:51;;;;;;;;;;;;;;;;;;1254430;23;19913;-90
2023/07/12 09:50:22;;;;;;;;;;;;;;;;;;1254178;23;20043;-89
2023/07/12 09:50:52;;;;;;;;;;;;;;;;;;1259651;23;19906;-91
2023/07/12 09:51:22;;;;;;;;;;;;;;;;;;1259601;23;20012;-90
2023/07/12 09:51:53;;;;;;;;;;;;;;;;;;1266153;23;19925;-90
2023/07/12 09:52:23;;;;;;;;;;;;;;;;;;1259787;23;20023;-90
2023/07/12 09:52:53;;;;;;;;;;;;;;;;;;1259770;23;19912;-91
2023/07/12 09:53:24;;;;;;;;;;;;;;;;;;1265703;23;19925;-91
2023/07/12 09:53:54;;;;;;;;;;;;;;;;;;1278162;23;20415;-92
2023/07/12 09:54:24;;;;;;;;;;;;;;;;;;1291047;23;19903;-89
2023/07/12 09:54:55;;;;;;;;;;;;;;;;;;1291305;23;20253;-89